Sutherland, IA (51058)

9:39 AM CDT on May 29, 2015 (GMT -0500)
Violet Street | | Change Station
CLOSE
Current Station
Personal Weather Station
Location: Sutherland, IA
Elevation: 1427 ft
Nearby Weather Stations

Elev 1427 ft 42.98 °N, 95.49 °W | Updated 2 seconds ago

Overcast
Overcast
66.0 °F
Feels Like 66.0 °F
N
3.6
Wind Variable Wind from South
Gusts 4.9 mph

Today
High -- | Low -- °F
--% Chance of Precip.
Yesterday
High -- | Low -- °F
Precip. -- in
5:47 AM 8:51 PM
Waxing Gibbous, 84% visible
Pressure 29.91 in
Visibility 7.0 miles
Clouds Overcast 1000 ft
Dew Point 64 °F
Humidity 94%
Rainfall 0.05 in
Snow Depth Not available.
UV 1.0 out of 12
Pollen .90 out of 12
Air Quality Not available.
Flu Activity Sporadic
METAR KCKP 291415Z AUTO 20007KT 7SM OVC010 19/18 A2991 RMK AO2 LTG DSNT W T01910182

More Conditions Fewer Conditions

Pressure 29.91 in
Visibility 7.0 miles
Clouds Overcast 1000 ft
Dew Point 64 °F
Humidity 94%
Rainfall 0.05 in
Snow Depth Not available.
UV 1.0 out of 12
Pollen .90 out of 12
Air Quality Not available.
Flu Activity Sporadic
METAR KCKP 291415Z AUTO 20007KT 7SM OVC010 19/18 A2991 RMK AO2 LTG DSNT W T01910182

More Conditions Fewer Conditions

10-Day Weather Forecast

Almanac

Astronomy

May. 29, 2015 Rise Set
Actual Time
Civil Twilight
Nautical Twilight
Astronomical Twilight
Moon
Length of Visible Light
Length of Day
Tomorrow will be .
, % of the Moon is Illuminated

Today's Extremes

State Highs State Lows

Community

WunderPhotos

Upload Photos

1,825,284 photos uploaded!

WunderBlogs® & News

Nearby

Air Quality

  Air Quality AQ Index Pollutant
Not available.

Snow Depth

Station Depth Elevation

Earthquake Activity

City Distance Mag. Time & Date
Minimum magnitude displayed is 2.5.

Coastal Water Temperatures

Place Temperature

Stations

Nearby Weather Stations

Station Location Temp. Windchill Dew Point Humidity Wind Precip. Elev Updated Type